createdAt,value
2022-12-12T06:11:40.597Z,33.22
2022-12-12T06:14:08.241Z,33.90
2022-12-12T06:16:35.518Z,32.10
2022-12-12T06:19:03.971Z,38.70
2022-12-12T06:21:30.609Z,31.15
2022-12-12T06:23:57.858Z,27.73
2022-12-12T06:26:24.593Z,28.58
2022-12-12T06:28:52.425Z,31.88
2022-12-12T06:31:19.302Z,31.13
2022-12-12T06:33:46.589Z,27.83
2022-12-12T06:36:23.847Z,33.72
2022-12-12T06:38:55.761Z,29.50
2022-12-12T06:41:24.432Z,33.03
2022-12-12T06:43:51.921Z,30.75
2022-12-12T06:46:23.255Z,30.27
2022-12-12T06:48:50.884Z,27.00
2022-12-12T06:51:21.589Z,27.60
2022-12-12T06:53:49.343Z,28.30
2022-12-12T06:56:21.387Z,24.70
2022-12-12T06:58:49.055Z,28.35
2022-12-12T07:01:21.591Z,32.17
2022-12-12T07:03:50.694Z,36.47
2022-12-12T07:06:18.834Z,33.50
2022-12-12T07:08:46.502Z,29.10
2022-12-12T07:11:21.868Z,27.17
2022-12-12T07:13:49.154Z,33.05
2022-12-12T07:16:16.081Z,53.60
2022-12-12T07:18:43.566Z,43.83
2022-12-12T07:21:13.579Z,30.65
2022-12-12T07:23:41.147Z,32.75
2022-12-12T07:26:12.857Z,37.72
2022-12-12T07:28:40.057Z,26.27
2022-12-12T07:31:08.937Z,26.40
2022-12-12T07:33:43.688Z,31.67
2022-12-12T07:36:13.507Z,29.42
2022-12-12T07:38:41.097Z,29.05
2022-12-12T07:41:10.643Z,30.80
2022-12-12T07:43:43.269Z,34.13
2022-12-12T07:46:14.414Z,29.65
2022-12-12T07:48:41.080Z,28.55
2022-12-12T07:51:08.209Z,30.10
2022-12-12T07:53:35.312Z,29.58
2022-12-12T07:56:06.739Z,31.67
2022-12-12T07:58:33.849Z,25.00
2022-12-12T08:01:00.774Z,33.38
2022-12-12T08:03:27.437Z,24.88
2022-12-12T08:05:54.420Z,27.45
2022-12-12T08:08:21.385Z,26.23
2022-12-12T08:10:47.974Z,23.42
2022-12-12T08:13:15.189Z,30.30
2022-12-12T08:15:43.091Z,27.42
2022-12-12T08:18:10.384Z,28.10
2022-12-12T08:20:40.118Z,19.23
2022-12-12T08:23:07.679Z,23.55
2022-12-12T08:25:36.088Z,18.83
2022-12-12T08:28:03.673Z,24.85
2022-12-12T08:30:30.202Z,21.40
2022-12-12T08:32:57.431Z,22.27
2022-12-12T08:35:24.035Z,23.45
2022-12-12T08:37:51.230Z,19.85
2022-12-12T08:40:17.794Z,22.98
2022-12-12T08:42:45.063Z,20.33
2022-12-12T08:45:12.448Z,21.35
2022-12-12T08:47:39.870Z,23.25
2022-12-12T08:50:07.237Z,15.63
2022-12-12T08:52:34.469Z,22.40
2022-12-12T08:55:01.027Z,25.13
2022-12-12T08:57:28.251Z,25.77
2022-12-12T08:59:54.892Z,18.60
2022-12-12T09:02:22.220Z,21.70
2022-12-12T09:04:48.824Z,18.00
2022-12-12T09:07:15.982Z,18.23
2022-12-12T09:09:42.541Z,18.35
2022-12-12T09:12:09.873Z,15.63
2022-12-12T09:14:36.749Z,16.83
2022-12-12T09:17:03.971Z,17.75
2022-12-12T09:19:31.018Z,24.35
2022-12-12T09:21:58.172Z,22.08
2022-12-12T09:24:25.451Z,24.63
2022-12-12T09:26:52.663Z,21.17
2022-12-12T09:29:19.250Z,21.50
2022-12-12T09:31:46.559Z,19.30
2022-12-12T09:34:13.594Z,23.55
2022-12-12T09:36:40.863Z,26.25
2022-12-12T09:39:07.485Z,20.92
2022-12-12T09:41:34.736Z,17.83
2022-12-12T09:44:04.940Z,20.13
2022-12-12T09:46:40.108Z,21.50
2022-12-12T09:49:27.944Z,22.67
2022-12-12T09:51:56.872Z,23.45
2022-12-12T09:54:26.159Z,24.83
2022-12-12T09:57:05.086Z,19.90
2022-12-12T09:59:55.059Z,21.73
2022-12-12T10:02:30.680Z,20.73
2022-12-12T10:05:02.199Z,23.45
2022-12-12T10:07:39.290Z,23.27
2022-12-12T10:10:09.520Z,25.60
2022-12-12T10:12:36.111Z,23.63
2022-12-12T10:15:13.267Z,22.85
2022-12-12T10:17:44.762Z,26.27
2022-12-12T10:20:23.929Z,34.10
2022-12-12T10:23:05.809Z,36.15
2022-12-12T10:25:32.921Z,36.30
2022-12-12T10:28:15.202Z,33.10
2022-12-12T10:30:57.495Z,30.05
2022-12-12T10:33:53.507Z,24.85
2022-12-12T10:36:53.786Z,24.02
2022-12-12T10:39:37.112Z,23.60
2022-12-12T10:42:41.054Z,18.23
2022-12-12T10:45:41.055Z,19.63
2022-12-12T10:48:07.678Z,19.40
2022-12-12T10:50:39.703Z,21.08
2022-12-12T10:53:08.666Z,20.42
2022-12-12T10:55:56.879Z,21.58
2022-12-12T10:58:28.555Z,21.77
2022-12-12T11:01:05.061Z,24.08
2022-12-12T11:03:52.113Z,21.02
2022-12-12T11:06:29.390Z,20.48
2022-12-12T11:09:07.081Z,21.73
2022-12-12T11:11:34.573Z,21.52
2022-12-12T11:14:03.570Z,24.85
2022-12-12T11:16:51.025Z,19.52
2022-12-12T11:19:27.229Z,22.98
2022-12-12T11:21:56.184Z,21.83
2022-12-12T11:24:29.706Z,24.13
2022-12-12T11:27:00.733Z,23.48
2022-12-12T11:29:30.237Z,23.70
2022-12-12T11:31:58.962Z,20.42
2022-12-12T11:34:27.609Z,17.27
2022-12-12T11:36:58.043Z,20.90
2022-12-12T11:39:44.076Z,18.00
2022-12-12T11:42:14.023Z,17.88
2022-12-12T11:47:43.587Z,22.33
2022-12-12T11:50:44.201Z,29.60
2022-12-12T11:53:11.419Z,26.15
2022-12-12T11:56:01.406Z,23.25
2022-12-12T11:58:37.016Z,31.17
2022-12-12T12:01:21.192Z,17.55
2022-12-12T12:04:17.729Z,23.95
2022-12-12T12:07:06.190Z,21.90
2022-12-12T12:10:26.156Z,19.48
2022-12-12T12:12:55.991Z,16.98
2022-12-12T12:15:30.828Z,14.82
2022-12-12T12:18:28.042Z,15.65
2022-12-12T12:20:57.983Z,18.52
2022-12-12T12:23:42.466Z,16.48
2022-12-12T12:26:40.440Z,16.20
2022-12-12T12:29:15.220Z,16.60
2022-12-12T12:32:00.983Z,22.63
2022-12-12T12:35:02.835Z,20.63
2022-12-12T12:37:29.925Z,17.33
2022-12-12T12:40:05.165Z,15.55
2022-12-12T12:42:54.882Z,16.77
2022-12-12T12:45:45.545Z,16.23
2022-12-12T12:48:24.982Z,15.77
2022-12-12T12:51:10.686Z,14.82
2022-12-12T12:53:42.780Z,15.63
2022-12-12T12:56:26.483Z,15.45
2022-12-12T12:59:10.405Z,19.00
2022-12-12T13:01:49.126Z,14.63
2022-12-12T13:04:29.478Z,15.20
2022-12-12T13:07:05.789Z,14.77
2022-12-12T13:09:40.578Z,16.05
2022-12-12T13:12:29.170Z,19.02
2022-12-12T13:15:13.227Z,14.98
2022-12-12T13:17:56.258Z,14.90
2022-12-12T13:20:25.639Z,15.50
2022-12-12T13:25:51.637Z,20.45
2022-12-12T13:28:23.517Z,18.67
2022-12-12T13:30:52.737Z,19.48
2022-12-12T13:33:25.539Z,18.40
2022-12-12T13:35:58.154Z,18.60
2022-12-12T13:38:32.741Z,20.35
2022-12-12T13:41:06.318Z,17.15
2022-12-12T13:43:33.421Z,19.83
2022-12-12T13:46:20.110Z,19.65
2022-12-12T13:49:16.738Z,18.33
2022-12-12T13:51:45.414Z,20.65
2022-12-12T13:54:14.217Z,15.60
2022-12-12T13:56:54.122Z,18.80
2022-12-12T13:59:23.523Z,18.73
2022-12-12T14:04:39.576Z,16.58
2022-12-12T14:07:12.878Z,22.38
2022-12-12T14:09:50.632Z,18.15
2022-12-12T14:12:30.752Z,20.95
2022-12-12T14:15:05.287Z,20.60
2022-12-12T14:17:42.369Z,20.10
2022-12-12T14:20:31.301Z,27.42
2022-12-12T14:23:13.903Z,25.65
2022-12-12T14:25:41.387Z,20.92
2022-12-12T14:28:22.402Z,21.00
2022-12-12T14:31:01.737Z,18.15
2022-12-12T14:38:52.163Z,19.83
2022-12-12T14:41:27.895Z,18.75
2022-12-12T14:44:35.418Z,23.70
2022-12-12T14:46:46.980Z,21.63
2022-12-12T14:49:18.487Z,21.65
2022-12-12T14:51:55.067Z,24.88
2022-12-12T14:54:24.621Z,27.67
2022-12-12T14:56:54.321Z,22.55
2022-12-12T14:59:28.988Z,28.20
2022-12-12T15:01:59.519Z,46.25
2022-12-12T15:04:32.656Z,89.57
2022-12-12T15:07:01.548Z,52.40
2022-12-12T15:09:31.296Z,33.05
2022-12-12T15:12:09.927Z,37.10
2022-12-12T15:14:54.490Z,31.55
2022-12-12T15:17:21.478Z,33.95
2022-12-12T15:19:51.321Z,29.45
2022-12-12T15:24:45.934Z,31.40
2022-12-12T15:27:19.885Z,29.65
2022-12-12T15:29:47.141Z,34.50
2022-12-12T15:32:20.314Z,35.92
2022-12-12T15:34:58.588Z,37.22
2022-12-12T15:37:27.833Z,31.60
2022-12-12T15:40:01.702Z,38.78
2022-12-12T15:42:28.983Z,39.05
2022-12-12T15:44:56.613Z,37.42
2022-12-12T15:47:23.290Z,29.83
2022-12-12T15:49:52.516Z,34.63
2022-12-12T15:52:26.821Z,44.30
2022-12-12T15:54:57.264Z,36.30
2022-12-12T15:57:30.722Z,41.45
2022-12-12T16:00:11.306Z,36.85
2022-12-12T16:02:38.406Z,42.08
2022-12-12T16:05:05.606Z,40.42
2022-12-12T16:07:37.348Z,38.20
2022-12-12T16:10:21.504Z,33.35
2022-12-12T16:12:59.900Z,39.58
2022-12-12T16:15:32.056Z,38.50
2022-12-12T16:18:05.209Z,35.13
2022-12-12T16:20:33.928Z,43.75
2022-12-12T16:23:18.017Z,39.17
2022-12-12T16:25:45.409Z,46.13
2022-12-12T16:28:17.937Z,50.88
2022-12-12T16:30:58.716Z,58.50
2022-12-12T16:33:27.968Z,59.67
2022-12-12T16:35:55.148Z,63.60
2022-12-12T16:38:22.157Z,48.55
2022-12-12T16:40:51.500Z,44.47
2022-12-12T16:43:20.549Z,44.67
2022-12-12T16:45:49.447Z,39.30
2022-12-12T16:48:19.065Z,43.50
2022-12-12T16:53:13.746Z,40.88
2022-12-12T16:55:43.304Z,36.97
2022-12-12T16:58:10.282Z,36.60
2022-12-12T17:00:38.451Z,34.10
2022-12-12T17:03:05.400Z,36.17
2022-12-12T17:05:32.850Z,35.90
2022-12-12T17:07:59.425Z,37.97
2022-12-12T17:10:26.752Z,40.60
2022-12-12T17:12:54.315Z,39.58
2022-12-12T17:15:24.783Z,40.60
2022-12-12T17:17:51.666Z,42.47
2022-12-12T17:20:18.971Z,34.53
2022-12-12T17:22:46.312Z,42.85
2022-12-12T17:25:14.331Z,42.03
2022-12-12T17:27:41.576Z,42.10
2022-12-12T17:30:09.513Z,45.25
2022-12-12T17:32:36.247Z,38.38
2022-12-12T17:35:04.730Z,38.83
2022-12-12T17:37:31.446Z,36.47
2022-12-12T17:39:58.462Z,37.85
2022-12-12T17:42:30.293Z,40.30
2022-12-12T17:44:57.243Z,40.80
2022-12-12T17:47:23.829Z,39.70
2022-12-12T17:49:51.029Z,45.75
2022-12-12T17:52:17.686Z,54.85
2022-12-12T17:54:44.638Z,47.67
2022-12-12T17:57:31.467Z,48.75
2022-12-12T17:59:58.846Z,44.10
2022-12-12T18:02:25.737Z,38.05
2022-12-12T18:04:52.987Z,35.25
2022-12-12T18:07:19.904Z,41.67
2022-12-12T18:09:47.146Z,39.78
2022-12-12T18:12:13.747Z,46.38
2022-12-12T18:14:41.035Z,46.58
2022-12-12T18:17:07.657Z,40.38
2022-12-12T18:19:35.108Z,47.28
2022-12-12T18:22:02.366Z,42.92
2022-12-12T18:24:30.629Z,43.28
2022-12-12T18:26:59.825Z,43.28
2022-12-12T18:29:27.683Z,43.08
2022-12-12T18:31:54.355Z,43.70
2022-12-12T18:34:21.886Z,42.63
2022-12-12T18:36:49.661Z,43.15
2022-12-12T18:39:17.204Z,42.63
2022-12-12T18:41:43.839Z,47.03
2022-12-12T18:44:14.480Z,41.15
2022-12-12T18:46:43.482Z,44.58
2022-12-12T18:54:14.177Z,40.20
2022-12-12T18:56:42.618Z,55.70
2022-12-12T18:59:09.782Z,55.95
2022-12-12T19:01:36.961Z,100.40
2022-12-12T19:04:12.208Z,77.57
2022-12-12T19:06:42.232Z,58.22
2022-12-12T19:09:16.084Z,52.10
2022-12-12T19:11:43.512Z,52.35
2022-12-12T19:14:12.784Z,55.60
2022-12-12T19:16:39.626Z,52.47
2022-12-12T19:19:09.506Z,53.15
2022-12-12T19:21:37.433Z,52.05
2022-12-12T19:24:09.380Z,54.17
2022-12-12T19:26:37.135Z,52.95
2022-12-12T19:29:07.871Z,50.00
2022-12-12T19:31:35.948Z,45.88
2022-12-12T19:34:04.745Z,59.85
2022-12-12T19:36:31.661Z,72.95
2022-12-12T19:39:01.294Z,71.32
2022-12-12T19:41:27.929Z,75.45
2022-12-12T19:43:57.466Z,51.63
2022-12-12T19:46:26.942Z,48.65
2022-12-12T19:51:26.594Z,46.25
2022-12-12T19:53:57.229Z,54.20
2022-12-12T19:56:30.482Z,53.42
2022-12-12T19:58:59.310Z,47.17
2022-12-12T20:01:29.067Z,35.97
2022-12-12T20:03:58.911Z,35.20
2022-12-12T20:06:26.105Z,32.75
2022-12-12T20:08:53.729Z,37.63
2022-12-12T20:11:22.956Z,37.03
2022-12-12T20:13:51.727Z,37.28
2022-12-12T20:16:20.720Z,37.03
2022-12-12T20:18:52.696Z,38.70
2022-12-12T20:21:51.748Z,45.15
2022-12-12T20:24:10.020Z,71.97
2022-12-12T20:26:37.467Z,46.17
2022-12-12T20:29:05.319Z,42.60
2022-12-12T20:31:34.920Z,41.08
2022-12-12T20:34:02.400Z,55.15
2022-12-12T20:36:34.409Z,53.30
2022-12-12T20:39:04.556Z,43.60
2022-12-12T20:41:34.040Z,43.25
2022-12-12T20:46:30.756Z,50.38
2022-12-12T20:54:22.462Z,52.28
2022-12-12T20:56:49.573Z,54.40
2022-12-12T20:59:16.491Z,57.53
2022-12-12T21:01:43.937Z,53.10
2022-12-12T21:04:10.647Z,53.40
2022-12-12T21:06:41.048Z,51.35
2022-12-12T21:09:10.206Z,50.00
2022-12-12T21:11:38.909Z,59.28
2022-12-12T21:14:06.928Z,50.88
2022-12-12T21:16:39.034Z,43.15
2022-12-12T21:19:08.780Z,44.45
2022-12-12T21:21:36.826Z,44.97
2022-12-12T21:24:04.722Z,53.40
2022-12-12T21:26:32.389Z,52.53
2022-12-12T21:29:01.666Z,56.47
